sensor_id;sensor_type;location;lat;lon;timestamp;P1;durP1;ratioP1;P2;durP2;ratioP2
77701;SDS011;66868;42.708;23.404;2023-07-02T00:02:15;9.30;;;6.07;;
77701;SDS011;66868;42.708;23.404;2023-07-02T00:04:44;8.50;;;5.82;;
77701;SDS011;66868;42.708;23.404;2023-07-02T00:07:09;12.88;;;6.40;;
77701;SDS011;66868;42.708;23.404;2023-07-02T00:09:35;9.75;;;6.03;;
77701;SDS011;66868;42.708;23.404;2023-07-02T00:12:01;9.98;;;5.65;;
77701;SDS011;66868;42.708;23.404;2023-07-02T00:14:26;8.23;;;5.65;;
77701;SDS011;66868;42.708;23.404;2023-07-02T00:16:51;10.60;;;5.90;;
77701;SDS011;66868;42.708;23.404;2023-07-02T00:19:17;7.47;;;5.85;;
77701;SDS011;66868;42.708;23.404;2023-07-02T00:21:42;9.07;;;5.85;;
77701;SDS011;66868;42.708;23.404;2023-07-02T00:24:08;8.35;;;5.93;;
77701;SDS011;66868;42.708;23.404;2023-07-02T00:26:37;6.10;;;5.50;;
77701;SDS011;66868;42.708;23.404;2023-07-02T00:29:03;5.70;;;5.15;;
77701;SDS011;66868;42.708;23.404;2023-07-02T00:31:30;5.70;;;5.20;;
77701;SDS011;66868;42.708;23.404;2023-07-02T00:33:56;5.90;;;5.40;;
77701;SDS011;66868;42.708;23.404;2023-07-02T00:36:22;10.90;;;5.70;;
77701;SDS011;66868;42.708;23.404;2023-07-02T00:38:48;6.70;;;5.55;;
77701;SDS011;66868;42.708;23.404;2023-07-02T00:41:14;8.45;;;5.60;;
77701;SDS011;66868;42.708;23.404;2023-07-02T00:43:40;9.40;;;5.97;;
77701;SDS011;66868;42.708;23.404;2023-07-02T00:46:18;10.10;;;5.68;;
77701;SDS011;66868;42.708;23.404;2023-07-02T00:48:47;7.75;;;6.00;;
77701;SDS011;66868;42.708;23.404;2023-07-02T00:51:15;7.63;;;5.70;;
77701;SDS011;66868;42.708;23.404;2023-07-02T00:53:46;5.88;;;5.28;;
77701;SDS011;66868;42.708;23.404;2023-07-02T00:56:13;10.57;;;5.97;;
77701;SDS011;66868;42.708;23.404;2023-07-02T00:58:40;7.97;;;6.57;;
77701;SDS011;66868;42.708;23.404;2023-07-02T01:04:02;15.20;;;9.38;;
77701;SDS011;66868;42.708;23.404;2023-07-02T01:06:32;20.40;;;10.10;;
77701;SDS011;66868;42.708;23.404;2023-07-02T01:09:01;19.52;;;10.05;;
77701;SDS011;66868;42.708;23.404;2023-07-02T01:11:29;17.58;;;9.77;;
77701;SDS011;66868;42.708;23.404;2023-07-02T01:14:20;16.65;;;9.60;;
77701;SDS011;66868;42.708;23.404;2023-07-02T01:16:58;14.43;;;8.57;;
77701;SDS011;66868;42.708;23.404;2023-07-02T01:22:21;13.32;;;7.63;;
77701;SDS011;66868;42.708;23.404;2023-07-02T01:24:49;15.20;;;8.00;;
77701;SDS011;66868;42.708;23.404;2023-07-02T01:27:18;8.85;;;6.85;;
77701;SDS011;66868;42.708;23.404;2023-07-02T01:29:44;6.93;;;6.25;;
77701;SDS011;66868;42.708;23.404;2023-07-02T01:32:11;10.93;;;6.13;;
77701;SDS011;66868;42.708;23.404;2023-07-02T01:34:37;11.23;;;6.32;;
77701;SDS011;66868;42.708;23.404;2023-07-02T01:37:03;9.18;;;6.25;;
77701;SDS011;66868;42.708;23.404;2023-07-02T01:39:29;10.75;;;5.57;;
77701;SDS011;66868;42.708;23.404;2023-07-02T01:41:55;7.78;;;5.78;;
77701;SDS011;66868;42.708;23.404;2023-07-02T01:44:33;12.68;;;6.05;;
77701;SDS011;66868;42.708;23.404;2023-07-02T01:46:58;9.10;;;5.03;;
77701;SDS011;66868;42.708;23.404;2023-07-02T01:49:23;10.90;;;5.60;;
77701;SDS011;66868;42.708;23.404;2023-07-02T01:51:50;11.95;;;5.85;;
77701;SDS011;66868;42.708;23.404;2023-07-02T01:54:19;11.63;;;5.40;;
77701;SDS011;66868;42.708;23.404;2023-07-02T01:56:45;6.45;;;4.78;;
77701;SDS011;66868;42.708;23.404;2023-07-02T01:59:10;8.00;;;5.32;;
77701;SDS011;66868;42.708;23.404;2023-07-02T02:01:36;8.05;;;5.00;;
77701;SDS011;66868;42.708;23.404;2023-07-02T02:04:05;5.82;;;5.10;;
77701;SDS011;66868;42.708;23.404;2023-07-02T02:06:31;11.23;;;5.72;;
77701;SDS011;66868;42.708;23.404;2023-07-02T02:08:57;6.40;;;5.47;;
77701;SDS011;66868;42.708;23.404;2023-07-02T02:11:22;8.30;;;5.70;;
77701;SDS011;66868;42.708;23.404;2023-07-02T02:13:48;12.55;;;5.90;;
77701;SDS011;66868;42.708;23.404;2023-07-02T02:16:14;9.93;;;5.72;;
77701;SDS011;66868;42.708;23.404;2023-07-02T02:18:39;9.15;;;5.93;;
77701;SDS011;66868;42.708;23.404;2023-07-02T02:21:05;9.63;;;6.28;;
77701;SDS011;66868;42.708;23.404;2023-07-02T02:23:30;7.53;;;6.30;;
77701;SDS011;66868;42.708;23.404;2023-07-02T02:25:55;6.15;;;5.65;;
77701;SDS011;66868;42.708;23.404;2023-07-02T02:28:21;8.88;;;5.63;;
77701;SDS011;66868;42.708;23.404;2023-07-02T02:30:46;5.97;;;5.45;;
77701;SDS011;66868;42.708;23.404;2023-07-02T02:33:12;7.88;;;5.80;;
77701;SDS011;66868;42.708;23.404;2023-07-02T02:35:37;8.20;;;6.10;;
77701;SDS011;66868;42.708;23.404;2023-07-02T02:38:03;12.27;;;6.32;;
77701;SDS011;66868;42.708;23.404;2023-07-02T02:40:29;9.30;;;5.85;;
77701;SDS011;66868;42.708;23.404;2023-07-02T02:42:55;11.85;;;6.63;;
77701;SDS011;66868;42.708;23.404;2023-07-02T02:45:20;9.70;;;5.95;;
77701;SDS011;66868;42.708;23.404;2023-07-02T02:47:46;13.10;;;5.82;;
77701;SDS011;66868;42.708;23.404;2023-07-02T02:50:12;9.27;;;6.22;;
77701;SDS011;66868;42.708;23.404;2023-07-02T02:52:38;7.32;;;5.57;;
77701;SDS011;66868;42.708;23.404;2023-07-02T02:55:05;14.23;;;6.00;;
77701;SDS011;66868;42.708;23.404;2023-07-02T02:57:31;12.45;;;6.70;;
77701;SDS011;66868;42.708;23.404;2023-07-02T02:59:57;7.35;;;5.68;;
77701;SDS011;66868;42.708;23.404;2023-07-02T03:02:23;11.95;;;5.93;;
77701;SDS011;66868;42.708;23.404;2023-07-02T03:04:48;10.13;;;6.32;;
77701;SDS011;66868;42.708;23.404;2023-07-02T03:07:14;13.02;;;7.03;;
77701;SDS011;66868;42.708;23.404;2023-07-02T03:09:40;13.93;;;6.90;;
77701;SDS011;66868;42.708;23.404;2023-07-02T03:12:06;10.10;;;6.70;;
77701;SDS011;66868;42.708;23.404;2023-07-02T03:14:31;11.20;;;7.00;;
77701;SDS011;66868;42.708;23.404;2023-07-02T03:16:57;13.55;;;6.90;;
77701;SDS011;66868;42.708;23.404;2023-07-02T03:19:23;7.85;;;6.43;;
77701;SDS011;66868;42.708;23.404;2023-07-02T03:21:49;8.73;;;6.03;;
77701;SDS011;66868;42.708;23.404;2023-07-02T03:24:14;15.15;;;6.60;;
77701;SDS011;66868;42.708;23.404;2023-07-02T03:26:41;10.73;;;6.50;;
77701;SDS011;66868;42.708;23.404;2023-07-02T03:29:07;11.98;;;6.20;;
77701;SDS011;66868;42.708;23.404;2023-07-02T03:31:32;7.70;;;6.50;;
77701;SDS011;66868;42.708;23.404;2023-07-02T03:33:58;14.52;;;6.53;;
77701;SDS011;66868;42.708;23.404;2023-07-02T03:36:24;12.68;;;6.82;;
77701;SDS011;66868;42.708;23.404;2023-07-02T03:38:49;12.43;;;6.72;;
77701;SDS011;66868;42.708;23.404;2023-07-02T03:41:14;17.60;;;7.00;;
77701;SDS011;66868;42.708;23.404;2023-07-02T03:43:40;10.10;;;6.72;;
77701;SDS011;66868;42.708;23.404;2023-07-02T03:46:05;12.90;;;6.60;;
77701;SDS011;66868;42.708;23.404;2023-07-02T03:48:31;10.63;;;6.78;;
77701;SDS011;66868;42.708;23.404;2023-07-02T03:50:56;8.43;;;5.82;;
77701;SDS011;66868;42.708;23.404;2023-07-02T03:53:21;15.90;;;6.80;;
77701;SDS011;66868;42.708;23.404;2023-07-02T03:55:47;10.60;;;6.78;;
77701;SDS011;66868;42.708;23.404;2023-07-02T03:58:12;10.63;;;6.68;;
77701;SDS011;66868;42.708;23.404;2023-07-02T04:00:37;20.50;;;6.75;;
77701;SDS011;66868;42.708;23.404;2023-07-02T04:03:03;7.57;;;6.13;;
77701;SDS011;66868;42.708;23.404;2023-07-02T04:05:29;12.40;;;7.35;;
77701;SDS011;66868;42.708;23.404;2023-07-02T04:07:54;10.65;;;6.65;;
77701;SDS011;66868;42.708;23.404;2023-07-02T04:10:20;8.40;;;6.35;;
77701;SDS011;66868;42.708;23.404;2023-07-02T04:12:45;7.63;;;6.07;;
77701;SDS011;66868;42.708;23.404;2023-07-02T04:15:10;12.88;;;6.28;;
77701;SDS011;66868;42.708;23.404;2023-07-02T04:17:36;13.10;;;6.03;;
77701;SDS011;66868;42.708;23.404;2023-07-02T04:20:01;19.85;;;5.95;;
77701;SDS011;66868;42.708;23.404;2023-07-02T04:22:32;10.90;;;6.28;;
77701;SDS011;66868;42.708;23.404;2023-07-02T04:24:57;10.73;;;6.40;;
77701;SDS011;66868;42.708;23.404;2023-07-02T04:27:22;9.80;;;6.22;;
77701;SDS011;66868;42.708;23.404;2023-07-02T04:29:48;9.07;;;6.00;;
77701;SDS011;66868;42.708;23.404;2023-07-02T04:32:14;15.30;;;5.93;;
77701;SDS011;66868;42.708;23.404;2023-07-02T04:34:39;11.57;;;6.05;;
77701;SDS011;66868;42.708;23.404;2023-07-02T04:37:05;11.07;;;5.68;;
77701;SDS011;66868;42.708;23.404;2023-07-02T04:39:30;15.35;;;6.30;;
77701;SDS011;66868;42.708;23.404;2023-07-02T04:41:56;12.25;;;6.45;;
77701;SDS011;66868;42.708;23.404;2023-07-02T04:44:21;10.13;;;5.68;;
77701;SDS011;66868;42.708;23.404;2023-07-02T04:46:57;15.43;;;6.30;;
77701;SDS011;66868;42.708;23.404;2023-07-02T04:49:23;14.25;;;6.88;;
77701;SDS011;66868;42.708;23.404;2023-07-02T04:51:50;15.10;;;7.43;;
77701;SDS011;66868;42.708;23.404;2023-07-02T04:54:15;11.45;;;6.80;;
77701;SDS011;66868;42.708;23.404;2023-07-02T04:56:40;10.73;;;6.80;;
77701;SDS011;66868;42.708;23.404;2023-07-02T04:59:06;13.00;;;7.13;;
77701;SDS011;66868;42.708;23.404;2023-07-02T05:01:31;15.95;;;8.25;;
77701;SDS011;66868;42.708;23.404;2023-07-02T05:03:56;8.40;;;6.63;;
77701;SDS011;66868;42.708;23.404;2023-07-02T05:06:22;11.05;;;7.35;;
77701;SDS011;66868;42.708;23.404;2023-07-02T05:08:47;10.95;;;7.28;;
77701;SDS011;66868;42.708;23.404;2023-07-02T05:11:13;11.45;;;6.68;;
77701;SDS011;66868;42.708;23.404;2023-07-02T05:13:38;18.80;;;7.30;;
77701;SDS011;66868;42.708;23.404;2023-07-02T05:16:03;9.25;;;6.90;;
77701;SDS011;66868;42.708;23.404;2023-07-02T05:18:29;10.02;;;7.07;;
77701;SDS011;66868;42.708;23.404;2023-07-02T05:20:54;11.65;;;7.45;;
77701;SDS011;66868;42.708;23.404;2023-07-02T05:23:19;14.68;;;7.50;;
77701;SDS011;66868;42.708;23.404;2023-07-02T05:25:45;8.85;;;7.47;;
77701;SDS011;66868;42.708;23.404;2023-07-02T05:28:11;15.70;;;7.30;;
77701;SDS011;66868;42.708;23.404;2023-07-02T05:30:37;13.73;;;7.30;;
77701;SDS011;66868;42.708;23.404;2023-07-02T05:33:02;9.13;;;6.97;;
77701;SDS011;66868;42.708;23.404;2023-07-02T05:35:28;11.23;;;7.35;;
77701;SDS011;66868;42.708;23.404;2023-07-02T05:37:53;12.95;;;7.82;;
77701;SDS011;66868;42.708;23.404;2023-07-02T05:40:19;8.43;;;7.63;;
77701;SDS011;66868;42.708;23.404;2023-07-02T05:42:44;11.30;;;7.47;;
77701;SDS011;66868;42.708;23.404;2023-07-02T05:45:09;11.18;;;7.53;;
77701;SDS011;66868;42.708;23.404;2023-07-02T05:47:35;14.25;;;6.95;;
77701;SDS011;66868;42.708;23.404;2023-07-02T05:50:01;12.85;;;6.97;;
77701;SDS011;66868;42.708;23.404;2023-07-02T05:52:26;9.40;;;6.88;;
77701;SDS011;66868;42.708;23.404;2023-07-02T05:54:52;14.50;;;8.20;;
77701;SDS011;66868;42.708;23.404;2023-07-02T05:57:17;7.75;;;6.93;;
77701;SDS011;66868;42.708;23.404;2023-07-02T05:59:42;12.52;;;7.03;;
77701;SDS011;66868;42.708;23.404;2023-07-02T06:02:08;9.07;;;7.07;;
77701;SDS011;66868;42.708;23.404;2023-07-02T06:04:33;8.73;;;7.03;;
77701;SDS011;66868;42.708;23.404;2023-07-02T06:06:58;12.50;;;7.43;;
77701;SDS011;66868;42.708;23.404;2023-07-02T06:09:24;10.48;;;7.03;;
77701;SDS011;66868;42.708;23.404;2023-07-02T06:11:49;15.30;;;7.40;;
77701;SDS011;66868;42.708;23.404;2023-07-02T06:14:14;11.90;;;7.55;;
77701;SDS011;66868;42.708;23.404;2023-07-02T06:16:40;20.55;;;8.15;;
77701;SDS011;66868;42.708;23.404;2023-07-02T06:19:06;17.15;;;7.82;;
77701;SDS011;66868;42.708;23.404;2023-07-02T06:21:32;13.48;;;8.05;;
77701;SDS011;66868;42.708;23.404;2023-07-02T06:23:58;13.85;;;6.93;;
77701;SDS011;66868;42.708;23.404;2023-07-02T06:26:23;10.25;;;7.30;;
77701;SDS011;66868;42.708;23.404;2023-07-02T06:28:49;12.52;;;7.82;;
77701;SDS011;66868;42.708;23.404;2023-07-02T06:31:14;10.93;;;7.30;;
77701;SDS011;66868;42.708;23.404;2023-07-02T06:33:40;17.88;;;8.18;;
77701;SDS011;66868;42.708;23.404;2023-07-02T06:36:07;11.82;;;7.43;;
77701;SDS011;66868;42.708;23.404;2023-07-02T06:38:32;10.05;;;7.40;;
77701;SDS011;66868;42.708;23.404;2023-07-02T06:40:58;10.20;;;7.72;;
77701;SDS011;66868;42.708;23.404;2023-07-02T06:43:23;10.10;;;7.85;;
77701;SDS011;66868;42.708;23.404;2023-07-02T06:45:49;13.05;;;8.63;;
77701;SDS011;66868;42.708;23.404;2023-07-02T06:48:14;14.48;;;9.27;;
77701;SDS011;66868;42.708;23.404;2023-07-02T06:50:45;18.33;;;9.40;;
77701;SDS011;66868;42.708;23.404;2023-07-02T06:53:11;19.35;;;10.40;;
77701;SDS011;66868;42.708;23.404;2023-07-02T06:55:37;16.13;;;9.57;;
77701;SDS011;66868;42.708;23.404;2023-07-02T06:58:03;16.73;;;9.43;;
77701;SDS011;66868;42.708;23.404;2023-07-02T07:00:31;16.20;;;9.30;;
77701;SDS011;66868;42.708;23.404;2023-07-02T07:03:00;18.50;;;8.55;;
77701;SDS011;66868;42.708;23.404;2023-07-02T07:05:26;15.93;;;8.85;;
77701;SDS011;66868;42.708;23.404;2023-07-02T07:07:51;19.30;;;8.13;;
77701;SDS011;66868;42.708;23.404;2023-07-02T07:10:17;14.18;;;9.15;;
77701;SDS011;66868;42.708;23.404;2023-07-02T07:12:42;14.55;;;7.88;;
77701;SDS011;66868;42.708;23.404;2023-07-02T07:15:08;12.45;;;7.32;;
77701;SDS011;66868;42.708;23.404;2023-07-02T07:17:33;13.35;;;7.72;;
77701;SDS011;66868;42.708;23.404;2023-07-02T07:19:59;13.50;;;8.35;;
77701;SDS011;66868;42.708;23.404;2023-07-02T07:22:24;11.30;;;7.47;;
77701;SDS011;66868;42.708;23.404;2023-07-02T07:24:50;10.35;;;7.35;;
77701;SDS011;66868;42.708;23.404;2023-07-02T07:27:15;10.30;;;7.55;;
77701;SDS011;66868;42.708;23.404;2023-07-02T07:29:40;11.77;;;7.97;;
77701;SDS011;66868;42.708;23.404;2023-07-02T07:32:06;11.63;;;7.85;;
77701;SDS011;66868;42.708;23.404;2023-07-02T07:34:32;10.95;;;8.32;;
77701;SDS011;66868;42.708;23.404;2023-07-02T07:36:57;21.52;;;8.55;;
77701;SDS011;66868;42.708;23.404;2023-07-02T07:39:22;12.13;;;8.85;;
77701;SDS011;66868;42.708;23.404;2023-07-02T07:41:48;14.38;;;8.30;;
77701;SDS011;66868;42.708;23.404;2023-07-02T07:44:13;13.27;;;8.18;;
77701;SDS011;66868;42.708;23.404;2023-07-02T07:46:39;9.73;;;6.95;;
77701;SDS011;66868;42.708;23.404;2023-07-02T07:49:04;12.45;;;7.32;;
77701;SDS011;66868;42.708;23.404;2023-07-02T07:51:30;15.57;;;8.05;;
77701;SDS011;66868;42.708;23.404;2023-07-02T07:53:55;14.43;;;9.27;;
77701;SDS011;66868;42.708;23.404;2023-07-02T07:56:20;13.73;;;8.45;;
77701;SDS011;66868;42.708;23.404;2023-07-02T07:58:46;9.32;;;7.70;;
77701;SDS011;66868;42.708;23.404;2023-07-02T08:01:11;12.38;;;7.70;;
77701;SDS011;66868;42.708;23.404;2023-07-02T08:03:37;14.73;;;7.82;;
77701;SDS011;66868;42.708;23.404;2023-07-02T08:06:03;9.32;;;7.68;;
77701;SDS011;66868;42.708;23.404;2023-07-02T08:08:29;12.15;;;7.85;;
77701;SDS011;66868;42.708;23.404;2023-07-02T08:10:54;10.10;;;7.75;;
77701;SDS011;66868;42.708;23.404;2023-07-02T08:13:19;10.30;;;7.25;;
77701;SDS011;66868;42.708;23.404;2023-07-02T08:15:45;17.15;;;7.72;;
77701;SDS011;66868;42.708;23.404;2023-07-02T08:18:10;13.55;;;6.72;;
77701;SDS011;66868;42.708;23.404;2023-07-02T08:20:38;10.60;;;8.07;;
77701;SDS011;66868;42.708;23.404;2023-07-02T08:23:03;14.80;;;7.05;;
77701;SDS011;66868;42.708;23.404;2023-07-02T08:25:29;12.93;;;7.63;;
77701;SDS011;66868;42.708;23.404;2023-07-02T08:27:55;16.85;;;7.60;;
77701;SDS011;66868;42.708;23.404;2023-07-02T08:30:21;7.75;;;6.95;;
77701;SDS011;66868;42.708;23.404;2023-07-02T08:32:46;9.80;;;6.55;;
77701;SDS011;66868;42.708;23.404;2023-07-02T08:35:12;9.43;;;6.50;;
77701;SDS011;66868;42.708;23.404;2023-07-02T08:37:37;15.00;;;7.68;;
77701;SDS011;66868;42.708;23.404;2023-07-02T08:40:03;11.00;;;7.20;;
77701;SDS011;66868;42.708;23.404;2023-07-02T08:42:30;13.70;;;7.00;;
77701;SDS011;66868;42.708;23.404;2023-07-02T08:44:59;10.10;;;7.07;;
77701;SDS011;66868;42.708;23.404;2023-07-02T08:47:25;14.93;;;6.72;;
77701;SDS011;66868;42.708;23.404;2023-07-02T08:49:51;9.35;;;6.45;;
77701;SDS011;66868;42.708;23.404;2023-07-02T08:52:16;6.88;;;6.30;;
77701;SDS011;66868;42.708;23.404;2023-07-02T08:54:42;7.72;;;6.45;;
77701;SDS011;66868;42.708;23.404;2023-07-02T08:57:08;11.23;;;5.95;;
77701;SDS011;66868;42.708;23.404;2023-07-02T08:59:35;9.52;;;5.85;;
77701;SDS011;66868;42.708;23.404;2023-07-02T09:02:01;15.98;;;7.15;;
77701;SDS011;66868;42.708;23.404;2023-07-02T09:04:26;9.18;;;6.53;;
77701;SDS011;66868;42.708;23.404;2023-07-02T09:07:06;8.00;;;5.90;;
77701;SDS011;66868;42.708;23.404;2023-07-02T09:09:33;7.05;;;6.07;;
77701;SDS011;66868;42.708;23.404;2023-07-02T09:12:09;6.00;;;5.38;;
77701;SDS011;66868;42.708;23.404;2023-07-02T09:14:34;11.82;;;5.82;;
77701;SDS011;66868;42.708;23.404;2023-07-02T09:17:04;12.23;;;5.88;;
77701;SDS011;66868;42.708;23.404;2023-07-02T09:19:36;5.82;;;5.18;;
77701;SDS011;66868;42.708;23.404;2023-07-02T09:22:12;6.68;;;6.00;;
77701;SDS011;66868;42.708;23.404;2023-07-02T09:24:40;9.60;;;5.65;;
77701;SDS011;66868;42.708;23.404;2023-07-02T09:27:06;7.38;;;5.40;;
77701;SDS011;66868;42.708;23.404;2023-07-02T09:29:32;7.32;;;5.50;;
77701;SDS011;66868;42.708;23.404;2023-07-02T09:32:02;5.80;;;5.18;;
77701;SDS011;66868;42.708;23.404;2023-07-02T09:34:32;8.10;;;5.70;;
77701;SDS011;66868;42.708;23.404;2023-07-02T09:36:59;8.50;;;5.38;;
77701;SDS011;66868;42.708;23.404;2023-07-02T09:39:27;12.43;;;6.03;;
77701;SDS011;66868;42.708;23.404;2023-07-02T09:41:57;8.25;;;5.75;;
77701;SDS011;66868;42.708;23.404;2023-07-02T09:44:28;6.20;;;5.60;;
77701;SDS011;66868;42.708;23.404;2023-07-02T09:47:01;6.13;;;5.00;;
77701;SDS011;66868;42.708;23.404;2023-07-02T09:49:31;9.55;;;5.30;;
77701;SDS011;66868;42.708;23.404;2023-07-02T09:52:10;6.05;;;5.07;;
77701;SDS011;66868;42.708;23.404;2023-07-02T09:54:38;7.13;;;5.45;;
77701;SDS011;66868;42.708;23.404;2023-07-02T09:57:04;5.40;;;4.97;;
77701;SDS011;66868;42.708;23.404;2023-07-02T09:59:31;6.80;;;5.25;;
77701;SDS011;66868;42.708;23.404;2023-07-02T10:01:56;10.25;;;5.05;;
77701;SDS011;66868;42.708;23.404;2023-07-02T10:04:22;5.72;;;4.43;;
77701;SDS011;66868;42.708;23.404;2023-07-02T10:06:49;5.00;;;4.70;;
77701;SDS011;66868;42.708;23.404;2023-07-02T10:09:43;6.65;;;4.95;;
77701;SDS011;66868;42.708;23.404;2023-07-02T10:12:18;6.10;;;4.93;;
77701;SDS011;66868;42.708;23.404;2023-07-02T10:14:49;5.07;;;4.70;;
77701;SDS011;66868;42.708;23.404;2023-07-02T10:17:22;9.18;;;5.78;;
77701;SDS011;66868;42.708;23.404;2023-07-02T10:20:02;5.53;;;5.13;;
77701;SDS011;66868;42.708;23.404;2023-07-02T10:22:46;5.05;;;4.65;;
77701;SDS011;66868;42.708;23.404;2023-07-02T10:25:27;5.15;;;4.70;;
77701;SDS011;66868;42.708;23.404;2023-07-02T10:27:54;5.70;;;5.07;;
77701;SDS011;66868;42.708;23.404;2023-07-02T10:30:30;5.20;;;4.65;;
77701;SDS011;66868;42.708;23.404;2023-07-02T10:33:11;6.70;;;5.50;;
77701;SDS011;66868;42.708;23.404;2023-07-02T10:35:39;5.35;;;4.85;;
77701;SDS011;66868;42.708;23.404;2023-07-02T10:40:43;7.20;;;4.57;;
77701;SDS011;66868;42.708;23.404;2023-07-02T10:43:09;6.70;;;4.53;;
77701;SDS011;66868;42.708;23.404;2023-07-02T10:45:35;7.25;;;4.78;;
77701;SDS011;66868;42.708;23.404;2023-07-02T10:48:02;6.30;;;4.55;;
77701;SDS011;66868;42.708;23.404;2023-07-02T10:50:34;5.25;;;4.55;;
77701;SDS011;66868;42.708;23.404;2023-07-02T10:53:00;5.28;;;4.60;;
77701;SDS011;66868;42.708;23.404;2023-07-02T10:55:26;7.47;;;4.70;;
77701;SDS011;66868;42.708;23.404;2023-07-02T10:58:05;13.23;;;4.63;;
77701;SDS011;66868;42.708;23.404;2023-07-02T11:00:32;10.38;;;4.88;;
77701;SDS011;66868;42.708;23.404;2023-07-02T11:02:58;11.57;;;4.60;;
77701;SDS011;66868;42.708;23.404;2023-07-02T11:05:24;4.68;;;4.38;;
77701;SDS011;66868;42.708;23.404;2023-07-02T11:07:50;7.05;;;5.20;;
77701;SDS011;66868;42.708;23.404;2023-07-02T11:10:22;5.00;;;4.38;;
77701;SDS011;66868;42.708;23.404;2023-07-02T11:12:49;6.65;;;4.90;;
77701;SDS011;66868;42.708;23.404;2023-07-02T11:15:15;7.20;;;5.03;;
77701;SDS011;66868;42.708;23.404;2023-07-02T11:17:44;5.65;;;4.95;;
77701;SDS011;66868;42.708;23.404;2023-07-02T11:20:10;6.03;;;4.78;;
77701;SDS011;66868;42.708;23.404;2023-07-02T11:22:38;6.25;;;5.65;;
77701;SDS011;66868;42.708;23.404;2023-07-02T11:27:43;4.53;;;4.22;;
77701;SDS011;66868;42.708;23.404;2023-07-02T11:30:09;4.63;;;4.32;;
77701;SDS011;66868;42.708;23.404;2023-07-02T11:32:49;6.97;;;4.90;;
77701;SDS011;66868;42.708;23.404;2023-07-02T11:35:16;5.35;;;4.90;;
77701;SDS011;66868;42.708;23.404;2023-07-02T11:37:43;4.85;;;4.53;;
77701;SDS011;66868;42.708;23.404;2023-07-02T11:40:10;6.72;;;5.63;;
77701;SDS011;66868;42.708;23.404;2023-07-02T11:42:35;5.18;;;4.70;;
77701;SDS011;66868;42.708;23.404;2023-07-02T11:45:01;6.03;;;4.70;;
77701;SDS011;66868;42.708;23.404;2023-07-02T11:47:27;6.80;;;4.45;;
77701;SDS011;66868;42.708;23.404;2023-07-02T11:49:52;7.07;;;5.90;;
77701;SDS011;66868;42.708;23.404;2023-07-02T11:52:20;13.48;;;5.03;;
77701;SDS011;66868;42.708;23.404;2023-07-02T11:54:46;11.07;;;4.78;;
77701;SDS011;66868;42.708;23.404;2023-07-02T11:57:12;5.10;;;4.30;;
77701;SDS011;66868;42.708;23.404;2023-07-02T11:59:37;6.50;;;4.88;;
77701;SDS011;66868;42.708;23.404;2023-07-02T12:02:03;4.70;;;4.40;;
77701;SDS011;66868;42.708;23.404;2023-07-02T12:04:29;5.57;;;4.53;;
77701;SDS011;66868;42.708;23.404;2023-07-02T12:06:54;5.63;;;5.22;;
77701;SDS011;66868;42.708;23.404;2023-07-02T12:09:19;4.80;;;4.32;;
77701;SDS011;66868;42.708;23.404;2023-07-02T12:11:45;5.03;;;4.53;;
77701;SDS011;66868;42.708;23.404;2023-07-02T12:14:11;4.22;;;4.03;;
77701;SDS011;66868;42.708;23.404;2023-07-02T12:16:36;4.82;;;4.40;;
77701;SDS011;66868;42.708;23.404;2023-07-02T12:19:02;4.78;;;4.38;;
77701;SDS011;66868;42.708;23.404;2023-07-02T12:21:27;5.50;;;4.57;;
77701;SDS011;66868;42.708;23.404;2023-07-02T12:23:53;4.97;;;4.57;;
77701;SDS011;66868;42.708;23.404;2023-07-02T12:26:18;4.57;;;4.00;;
77701;SDS011;66868;42.708;23.404;2023-07-02T12:28:44;7.47;;;4.63;;
77701;SDS011;66868;42.708;23.404;2023-07-02T12:31:09;4.70;;;4.30;;
77701;SDS011;66868;42.708;23.404;2023-07-02T12:33:35;5.07;;;3.92;;
77701;SDS011;66868;42.708;23.404;2023-07-02T12:36:00;4.65;;;4.25;;
77701;SDS011;66868;42.708;23.404;2023-07-02T12:38:26;4.28;;;3.97;;
77701;SDS011;66868;42.708;23.404;2023-07-02T12:40:51;7.85;;;4.32;;
77701;SDS011;66868;42.708;23.404;2023-07-02T12:43:17;5.00;;;4.60;;
77701;SDS011;66868;42.708;23.404;2023-07-02T12:45:42;6.35;;;4.32;;
77701;SDS011;66868;42.708;23.404;2023-07-02T12:48:08;5.30;;;4.80;;
77701;SDS011;66868;42.708;23.404;2023-07-02T12:50:34;7.00;;;4.50;;
77701;SDS011;66868;42.708;23.404;2023-07-02T12:53:02;7.85;;;4.95;;
77701;SDS011;66868;42.708;23.404;2023-07-02T12:55:27;6.13;;;4.65;;
77701;SDS011;66868;42.708;23.404;2023-07-02T12:57:52;5.28;;;4.80;;
77701;SDS011;66868;42.708;23.404;2023-07-02T13:00:18;4.75;;;4.40;;
77701;SDS011;66868;42.708;23.404;2023-07-02T13:02:44;6.07;;;4.95;;
77701;SDS011;66868;42.708;23.404;2023-07-02T13:05:11;5.22;;;4.82;;
77701;SDS011;66868;42.708;23.404;2023-07-02T13:07:37;5.57;;;4.28;;
77701;SDS011;66868;42.708;23.404;2023-07-02T13:10:02;4.72;;;4.43;;
77701;SDS011;66868;42.708;23.404;2023-07-02T13:12:28;7.20;;;6.00;;
77701;SDS011;66868;42.708;23.404;2023-07-02T13:14:53;5.82;;;5.32;;
77701;SDS011;66868;42.708;23.404;2023-07-02T13:17:18;5.50;;;5.10;;
77701;SDS011;66868;42.708;23.404;2023-07-02T13:19:44;7.10;;;5.28;;
77701;SDS011;66868;42.708;23.404;2023-07-02T13:22:09;6.10;;;5.50;;
77701;SDS011;66868;42.708;23.404;2023-07-02T13:24:35;6.40;;;5.18;;
77701;SDS011;66868;42.708;23.404;2023-07-02T13:27:02;6.55;;;4.90;;
77701;SDS011;66868;42.708;23.404;2023-07-02T13:29:29;5.80;;;5.25;;
77701;SDS011;66868;42.708;23.404;2023-07-02T13:31:56;5.45;;;5.05;;
77701;SDS011;66868;42.708;23.404;2023-07-02T13:34:21;5.45;;;5.13;;
77701;SDS011;66868;42.708;23.404;2023-07-02T13:36:47;5.20;;;4.80;;
77701;SDS011;66868;42.708;23.404;2023-07-02T13:39:12;6.07;;;5.38;;
77701;SDS011;66868;42.708;23.404;2023-07-02T13:41:38;5.53;;;5.10;;
77701;SDS011;66868;42.708;23.404;2023-07-02T13:44:03;6.03;;;5.53;;
77701;SDS011;66868;42.708;23.404;2023-07-02T13:46:29;5.57;;;5.07;;
77701;SDS011;66868;42.708;23.404;2023-07-02T13:48:54;7.25;;;5.43;;
77701;SDS011;66868;42.708;23.404;2023-07-02T13:51:19;6.03;;;5.50;;
77701;SDS011;66868;42.708;23.404;2023-07-02T13:53:45;7.60;;;5.38;;
77701;SDS011;66868;42.708;23.404;2023-07-02T13:56:10;8.55;;;5.07;;
77701;SDS011;66868;42.708;23.404;2023-07-02T14:01:12;6.45;;;5.38;;
77701;SDS011;66868;42.708;23.404;2023-07-02T14:03:38;6.50;;;5.25;;
77701;SDS011;66868;42.708;23.404;2023-07-02T14:06:03;5.80;;;5.03;;
77701;SDS011;66868;42.708;23.404;2023-07-02T14:08:28;5.90;;;5.32;;
77701;SDS011;66868;42.708;23.404;2023-07-02T14:10:54;5.90;;;5.13;;
77701;SDS011;66868;42.708;23.404;2023-07-02T14:13:19;4.97;;;4.63;;
77701;SDS011;66868;42.708;23.404;2023-07-02T14:15:44;5.40;;;4.97;;
77701;SDS011;66868;42.708;23.404;2023-07-02T14:18:10;5.90;;;5.05;;
77701;SDS011;66868;42.708;23.404;2023-07-02T14:20:35;6.20;;;5.00;;
77701;SDS011;66868;42.708;23.404;2023-07-02T14:23:01;4.85;;;4.45;;
77701;SDS011;66868;42.708;23.404;2023-07-02T14:25:26;6.88;;;4.72;;
77701;SDS011;66868;42.708;23.404;2023-07-02T14:27:51;5.40;;;4.97;;
77701;SDS011;66868;42.708;23.404;2023-07-02T14:30:17;5.50;;;5.00;;
77701;SDS011;66868;42.708;23.404;2023-07-02T14:32:42;5.20;;;4.75;;
77701;SDS011;66868;42.708;23.404;2023-07-02T14:35:09;5.20;;;4.70;;
77701;SDS011;66868;42.708;23.404;2023-07-02T14:37:34;6.30;;;5.15;;
77701;SDS011;66868;42.708;23.404;2023-07-02T14:39:59;8.15;;;5.82;;